Main page
METAR-TAF:

METAR-TAF

Airports :

Ørsta–Volda Airport. Hovden

Ørsta-Volda, Norway

latitude: 62-11N, longitude: 006-04E, elevation: 7 m

Current weather observation

The report was made 24 minutes ago, at 04:20 UTC
Wind 1 kt from variable directions
Temperature 11°C
Humidity 71%
Pressure 1018 hPa
Visibility 10 km or more
no clouds below 1500 m and no cumulonimbus

METAR: ENOV 240420Z VRB01KT CAVOK 11/06 Q1018 RMK WIND RWY 24 VRB01KT WIND 2090FT 14019KT

Time: 06:44 (04:44 UTC)

Forecast

The report was made 2 hours and 44 minutes ago, at 02:00 UTC
Forecast valid from 24 at 03 UTC to 24 at 12 UTC
Wind 5 kt from variable directions
Visibility 10 km or more
no clouds below 1500 m and no cumulonimbus

TAF: ENOV 240200Z 2403/2412 VRB05KT CAVOK

Weather observations and forecasts of more than 4000 airports (METAR and TAF reports).

The available stations are represented by yellow and red dots on the map.

Hover mouse over dot to see the name of the station.

Then click to see weather observations and forecasts.

To change the map : click on the green buttons with a black cross to zoom in, on the green button with a dash to zoom out, or on the green arrows for adjacent maps.


METAR-TAF: